sensor_id;sensor_type;location;lat;lon;timestamp;P1;P2;P0
64138;PMS5003;50435;43.700;-79.318;2023-04-01T00:01:48;13;10;
64138;PMS5003;50435;43.700;-79.318;2023-04-01T00:04:16;10;10;
64138;PMS5003;50435;43.700;-79.318;2023-04-01T00:06:43;8;8;
64138;PMS5003;50435;43.700;-79.318;2023-04-01T00:09:10;8;8;
64138;PMS5003;50435;43.700;-79.318;2023-04-01T00:11:38;7;7;
64138;PMS5003;50435;43.700;-79.318;2023-04-01T00:14:05;10;10;
64138;PMS5003;50435;43.700;-79.318;2023-04-01T00:16:33;10;7;
64138;PMS5003;50435;43.700;-79.318;2023-04-01T00:19:01;10;10;
64138;PMS5003;50435;43.700;-79.318;2023-04-01T00:21:29;8;7;
64138;PMS5003;50435;43.700;-79.318;2023-04-01T00:23:57;11;10;
64138;PMS5003;50435;43.700;-79.318;2023-04-01T00:26:24;8;8;
64138;PMS5003;50435;43.700;-79.318;2023-04-01T00:28:52;10;6;
64138;PMS5003;50435;43.700;-79.318;2023-04-01T00:31:19;6;6;
64138;PMS5003;50435;43.700;-79.318;2023-04-01T00:33:47;8;7;
64138;PMS5003;50435;43.700;-79.318;2023-04-01T00:36:15;11;8;
64138;PMS5003;50435;43.700;-79.318;2023-04-01T00:38:44;11;11;
64138;PMS5003;50435;43.700;-79.318;2023-04-01T00:41:12;10;10;
64138;PMS5003;50435;43.700;-79.318;2023-04-01T00:43:41;8;6;
64138;PMS5003;50435;43.700;-79.318;2023-04-01T00:46:10;12;11;
64138;PMS5003;50435;43.700;-79.318;2023-04-01T00:48:38;8;8;
64138;PMS5003;50435;43.700;-79.318;2023-04-01T00:51:09;7;7;
64138;PMS5003;50435;43.700;-79.318;2023-04-01T00:53:41;10;10;
64138;PMS5003;50435;43.700;-79.318;2023-04-01T00:56:12;10;8;
64138;PMS5003;50435;43.700;-79.318;2023-04-01T00:58:43;10;8;
64138;PMS5003;50435;43.700;-79.318;2023-04-01T01:01:15;8;8;
64138;PMS5003;50435;43.700;-79.318;2023-04-01T01:03:42;13;11;
64138;PMS5003;50435;43.700;-79.318;2023-04-01T01:06:11;12;12;
64138;PMS5003;50435;43.700;-79.318;2023-04-01T01:09:07;10;8;
64138;PMS5003;50435;43.700;-79.318;2023-04-01T01:11:46;13;12;
64138;PMS5003;50435;43.700;-79.318;2023-04-01T01:14:27;7;7;
64138;PMS5003;50435;43.700;-79.318;2023-04-01T01:17:06;13;12;
64138;PMS5003;50435;43.700;-79.318;2023-04-01T01:19:47;12;11;
64138;PMS5003;50435;43.700;-79.318;2023-04-01T01:22:30;8;8;
64138;PMS5003;50435;43.700;-79.318;2023-04-01T01:25:15;11;11;
64138;PMS5003;50435;43.700;-79.318;2023-04-01T01:27:54;16;10;
64138;PMS5003;50435;43.700;-79.318;2023-04-01T01:30:37;14;13;
64138;PMS5003;50435;43.700;-79.318;2023-04-01T01:33:13;11;8;
64138;PMS5003;50435;43.700;-79.318;2023-04-01T01:35:51;11;11;
64138;PMS5003;50435;43.700;-79.318;2023-04-01T01:38:21;13;11;
64138;PMS5003;50435;43.700;-79.318;2023-04-01T01:40:51;8;8;
64138;PMS5003;50435;43.700;-79.318;2023-04-01T01:43:23;12;10;
64138;PMS5003;50435;43.700;-79.318;2023-04-01T01:45:54;16;12;
64138;PMS5003;50435;43.700;-79.318;2023-04-01T01:48:24;11;10;
64138;PMS5003;50435;43.700;-79.318;2023-04-01T01:50:55;11;11;
64138;PMS5003;50435;43.700;-79.318;2023-04-01T01:53:23;18;14;
64138;PMS5003;50435;43.700;-79.318;2023-04-01T01:55:50;12;12;
64138;PMS5003;50435;43.700;-79.318;2023-04-01T01:58:19;16;15;
64138;PMS5003;50435;43.700;-79.318;2023-04-01T02:00:50;12;11;
64138;PMS5003;50435;43.700;-79.318;2023-04-01T02:03:21;18;18;
64138;PMS5003;50435;43.700;-79.318;2023-04-01T02:05:52;18;15;
64138;PMS5003;50435;43.700;-79.318;2023-04-01T02:08:22;15;12;
64138;PMS5003;50435;43.700;-79.318;2023-04-01T02:10:55;14;12;
64138;PMS5003;50435;43.700;-79.318;2023-04-01T02:13:27;16;15;
64138;PMS5003;50435;43.700;-79.318;2023-04-01T02:16:01;14;12;
64138;PMS5003;50435;43.700;-79.318;2023-04-01T02:18:33;15;13;
64138;PMS5003;50435;43.700;-79.318;2023-04-01T02:21:03;12;11;
64138;PMS5003;50435;43.700;-79.318;2023-04-01T02:23:33;16;13;
64138;PMS5003;50435;43.700;-79.318;2023-04-01T02:26:02;15;13;
64138;PMS5003;50435;43.700;-79.318;2023-04-01T02:28:31;13;12;
64138;PMS5003;50435;43.700;-79.318;2023-04-01T02:31:01;14;13;
64138;PMS5003;50435;43.700;-79.318;2023-04-01T02:33:30;13;13;
64138;PMS5003;50435;43.700;-79.318;2023-04-01T02:35:58;12;12;
64138;PMS5003;50435;43.700;-79.318;2023-04-01T02:38:26;10;10;
64138;PMS5003;50435;43.700;-79.318;2023-04-01T02:40:57;10;10;
64138;PMS5003;50435;43.700;-79.318;2023-04-01T02:43:27;15;13;
64138;PMS5003;50435;43.700;-79.318;2023-04-01T02:45:55;6;6;
64138;PMS5003;50435;43.700;-79.318;2023-04-01T02:48:22;12;8;
64138;PMS5003;50435;43.700;-79.318;2023-04-01T02:50:50;13;8;
64138;PMS5003;50435;43.700;-79.318;2023-04-01T02:53:18;13;11;
64138;PMS5003;50435;43.700;-79.318;2023-04-01T02:55:45;10;10;
64138;PMS5003;50435;43.700;-79.318;2023-04-01T02:58:13;10;10;
64138;PMS5003;50435;43.700;-79.318;2023-04-01T03:00:40;13;10;
64138;PMS5003;50435;43.700;-79.318;2023-04-01T03:03:07;8;8;
64138;PMS5003;50435;43.700;-79.318;2023-04-01T03:05:35;8;8;
64138;PMS5003;50435;43.700;-79.318;2023-04-01T03:08:02;8;8;
64138;PMS5003;50435;43.700;-79.318;2023-04-01T03:10:30;11;10;
64138;PMS5003;50435;43.700;-79.318;2023-04-01T03:12:58;11;11;
64138;PMS5003;50435;43.700;-79.318;2023-04-01T03:15:26;6;6;
64138;PMS5003;50435;43.700;-79.318;2023-04-01T03:17:53;10;10;
64138;PMS5003;50435;43.700;-79.318;2023-04-01T03:20:20;10;8;
64138;PMS5003;50435;43.700;-79.318;2023-04-01T03:22:48;10;10;
64138;PMS5003;50435;43.700;-79.318;2023-04-01T03:25:16;8;8;
64138;PMS5003;50435;43.700;-79.318;2023-04-01T03:27:44;11;7;
64138;PMS5003;50435;43.700;-79.318;2023-04-01T03:30:11;8;8;
64138;PMS5003;50435;43.700;-79.318;2023-04-01T03:32:39;10;10;
64138;PMS5003;50435;43.700;-79.318;2023-04-01T03:35:07;10;8;
64138;PMS5003;50435;43.700;-79.318;2023-04-01T03:37:35;6;6;
64138;PMS5003;50435;43.700;-79.318;2023-04-01T03:40:02;10;8;
64138;PMS5003;50435;43.700;-79.318;2023-04-01T03:42:30;10;8;
64138;PMS5003;50435;43.700;-79.318;2023-04-01T03:44:58;7;7;
64138;PMS5003;50435;43.700;-79.318;2023-04-01T03:47:25;8;6;
64138;PMS5003;50435;43.700;-79.318;2023-04-01T03:49:53;11;8;
64138;PMS5003;50435;43.700;-79.318;2023-04-01T03:52:21;8;7;
64138;PMS5003;50435;43.700;-79.318;2023-04-01T03:54:49;8;7;
64138;PMS5003;50435;43.700;-79.318;2023-04-01T03:57:17;7;7;
64138;PMS5003;50435;43.700;-79.318;2023-04-01T03:59:44;8;7;
64138;PMS5003;50435;43.700;-79.318;2023-04-01T04:02:11;7;7;
64138;PMS5003;50435;43.700;-79.318;2023-04-01T04:04:39;8;8;
64138;PMS5003;50435;43.700;-79.318;2023-04-01T04:07:06;12;10;
64138;PMS5003;50435;43.700;-79.318;2023-04-01T04:09:34;8;7;
64138;PMS5003;50435;43.700;-79.318;2023-04-01T04:12:01;8;6;
64138;PMS5003;50435;43.700;-79.318;2023-04-01T04:14:28;10;10;
64138;PMS5003;50435;43.700;-79.318;2023-04-01T04:16:55;7;7;
64138;PMS5003;50435;43.700;-79.318;2023-04-01T04:19:23;6;6;
64138;PMS5003;50435;43.700;-79.318;2023-04-01T04:21:50;11;11;
64138;PMS5003;50435;43.700;-79.318;2023-04-01T04:24:17;9;7;
64138;PMS5003;50435;43.700;-79.318;2023-04-01T04:26:44;10;8;
64138;PMS5003;50435;43.700;-79.318;2023-04-01T04:29:11;9;8;
64138;PMS5003;50435;43.700;-79.318;2023-04-01T04:31:39;7;7;
64138;PMS5003;50435;43.700;-79.318;2023-04-01T04:34:06;7;7;
64138;PMS5003;50435;43.700;-79.318;2023-04-01T04:36:33;7;6;
64138;PMS5003;50435;43.700;-79.318;2023-04-01T04:39:01;7;7;
64138;PMS5003;50435;43.700;-79.318;2023-04-01T04:41:28;13;13;
64138;PMS5003;50435;43.700;-79.318;2023-04-01T04:43:56;12;9;
64138;PMS5003;50435;43.700;-79.318;2023-04-01T04:46:23;7;7;
64138;PMS5003;50435;43.700;-79.318;2023-04-01T04:48:51;9;9;
64138;PMS5003;50435;43.700;-79.318;2023-04-01T04:51:19;14;8;
64138;PMS5003;50435;43.700;-79.318;2023-04-01T04:53:47;11;9;
64138;PMS5003;50435;43.700;-79.318;2023-04-01T04:56:17;9;9;
64138;PMS5003;50435;43.700;-79.318;2023-04-01T04:58:45;9;8;
64138;PMS5003;50435;43.700;-79.318;2023-04-01T05:01:13;12;7;
64138;PMS5003;50435;43.700;-79.318;2023-04-01T05:03:42;11;9;
64138;PMS5003;50435;43.700;-79.318;2023-04-01T05:06:11;9;8;
64138;PMS5003;50435;43.700;-79.318;2023-04-01T05:08:40;7;7;
64138;PMS5003;50435;43.700;-79.318;2023-04-01T05:11:09;7;6;
64138;PMS5003;50435;43.700;-79.318;2023-04-01T05:13:39;9;8;
64138;PMS5003;50435;43.700;-79.318;2023-04-01T05:16:08;6;5;
64138;PMS5003;50435;43.700;-79.318;2023-04-01T05:18:35;6;6;
64138;PMS5003;50435;43.700;-79.318;2023-04-01T05:21:03;6;6;
64138;PMS5003;50435;43.700;-79.318;2023-04-01T05:23:33;4;4;
64138;PMS5003;50435;43.700;-79.318;2023-04-01T05:26:02;6;6;
64138;PMS5003;50435;43.700;-79.318;2023-04-01T05:28:31;7;4;
64138;PMS5003;50435;43.700;-79.318;2023-04-01T05:30:58;6;5;
64138;PMS5003;50435;43.700;-79.318;2023-04-01T05:33:27;4;4;
64138;PMS5003;50435;43.700;-79.318;2023-04-01T05:35:56;6;5;
64138;PMS5003;50435;43.700;-79.318;2023-04-01T05:38:31;7;6;
64138;PMS5003;50435;43.700;-79.318;2023-04-01T05:40:59;4;4;
64138;PMS5003;50435;43.700;-79.318;2023-04-01T05:43:27;5;5;
64138;PMS5003;50435;43.700;-79.318;2023-04-01T05:45:54;4;4;
64138;PMS5003;50435;43.700;-79.318;2023-04-01T05:48:21;5;4;
64138;PMS5003;50435;43.700;-79.318;2023-04-01T05:50:49;5;5;
64138;PMS5003;50435;43.700;-79.318;2023-04-01T05:53:17;4;3;
64138;PMS5003;50435;43.700;-79.318;2023-04-01T05:55:44;1;1;
64138;PMS5003;50435;43.700;-79.318;2023-04-01T05:58:11;4;3;
64138;PMS5003;50435;43.700;-79.318;2023-04-01T06:00:38;2;2;
64138;PMS5003;50435;43.700;-79.318;2023-04-01T06:03:05;4;4;
64138;PMS5003;50435;43.700;-79.318;2023-04-01T06:05:37;2;2;
64138;PMS5003;50435;43.700;-79.318;2023-04-01T06:08:09;2;2;
64138;PMS5003;50435;43.700;-79.318;2023-04-01T06:10:42;1;1;
64138;PMS5003;50435;43.700;-79.318;2023-04-01T06:13:24;3;3;
64138;PMS5003;50435;43.700;-79.318;2023-04-01T06:16:07;1;1;
64138;PMS5003;50435;43.700;-79.318;2023-04-01T06:18:48;3;3;
64138;PMS5003;50435;43.700;-79.318;2023-04-01T06:21:31;2;2;
64138;PMS5003;50435;43.700;-79.318;2023-04-01T06:24:16;2;2;
64138;PMS5003;50435;43.700;-79.318;2023-04-01T06:26:56;2;2;
64138;PMS5003;50435;43.700;-79.318;2023-04-01T06:29:38;1;1;
64138;PMS5003;50435;43.700;-79.318;2023-04-01T06:32:21;3;2;
64138;PMS5003;50435;43.700;-79.318;2023-04-01T06:35:07;1;1;
64138;PMS5003;50435;43.700;-79.318;2023-04-01T06:37:54;1;1;
64138;PMS5003;50435;43.700;-79.318;2023-04-01T06:40:40;1;1;
64138;PMS5003;50435;43.700;-79.318;2023-04-01T06:43:21;2;2;
64138;PMS5003;50435;43.700;-79.318;2023-04-01T06:46:00;1;1;
64138;PMS5003;50435;43.700;-79.318;2023-04-01T06:48:40;2;2;
64138;PMS5003;50435;43.700;-79.318;2023-04-01T06:51:19;1;1;
64138;PMS5003;50435;43.700;-79.318;2023-04-01T06:53:56;1;1;
64138;PMS5003;50435;43.700;-79.318;2023-04-01T06:56:30;0;0;
64138;PMS5003;50435;43.700;-79.318;2023-04-01T06:59:01;0;0;
64138;PMS5003;50435;43.700;-79.318;2023-04-01T07:01:34;2;1;
64138;PMS5003;50435;43.700;-79.318;2023-04-01T07:04:06;1;0;
64138;PMS5003;50435;43.700;-79.318;2023-04-01T07:06:42;1;1;
64138;PMS5003;50435;43.700;-79.318;2023-04-01T07:09:14;1;1;
64138;PMS5003;50435;43.700;-79.318;2023-04-01T07:11:45;0;0;
64138;PMS5003;50435;43.700;-79.318;2023-04-01T07:14:15;0;0;
64138;PMS5003;50435;43.700;-79.318;2023-04-01T07:16:47;0;0;
64138;PMS5003;50435;43.700;-79.318;2023-04-01T07:19:20;0;0;
64138;PMS5003;50435;43.700;-79.318;2023-04-01T07:21:55;0;0;
64138;PMS5003;50435;43.700;-79.318;2023-04-01T07:24:27;0;0;
64138;PMS5003;50435;43.700;-79.318;2023-04-01T07:26:59;0;0;
64138;PMS5003;50435;43.700;-79.318;2023-04-01T07:29:26;0;0;
64138;PMS5003;50435;43.700;-79.318;2023-04-01T07:31:58;0;0;
64138;PMS5003;50435;43.700;-79.318;2023-04-01T07:34:45;1;1;
64138;PMS5003;50435;43.700;-79.318;2023-04-01T07:37:25;0;0;
64138;PMS5003;50435;43.700;-79.318;2023-04-01T07:39:59;0;0;
64138;PMS5003;50435;43.700;-79.318;2023-04-01T07:42:41;0;0;
64138;PMS5003;50435;43.700;-79.318;2023-04-01T07:45:24;0;0;
64138;PMS5003;50435;43.700;-79.318;2023-04-01T07:48:02;1;0;
64138;PMS5003;50435;43.700;-79.318;2023-04-01T07:50:38;0;0;
64138;PMS5003;50435;43.700;-79.318;2023-04-01T07:53:15;0;0;
64138;PMS5003;50435;43.700;-79.318;2023-04-01T07:55:50;0;0;
64138;PMS5003;50435;43.700;-79.318;2023-04-01T07:58:29;0;0;
64138;PMS5003;50435;43.700;-79.318;2023-04-01T08:01:03;0;0;
64138;PMS5003;50435;43.700;-79.318;2023-04-01T08:03:40;0;0;
64138;PMS5003;50435;43.700;-79.318;2023-04-01T08:06:20;1;0;
64138;PMS5003;50435;43.700;-79.318;2023-04-01T08:08:57;0;0;
64138;PMS5003;50435;43.700;-79.318;2023-04-01T08:11:35;0;0;
64138;PMS5003;50435;43.700;-79.318;2023-04-01T08:14:16;0;0;
64138;PMS5003;50435;43.700;-79.318;2023-04-01T08:16:53;1;1;
64138;PMS5003;50435;43.700;-79.318;2023-04-01T08:19:30;0;0;
64138;PMS5003;50435;43.700;-79.318;2023-04-01T08:22:07;0;0;
64138;PMS5003;50435;43.700;-79.318;2023-04-01T08:24:39;0;0;
64138;PMS5003;50435;43.700;-79.318;2023-04-01T08:27:11;0;0;
64138;PMS5003;50435;43.700;-79.318;2023-04-01T08:29:46;0;0;
64138;PMS5003;50435;43.700;-79.318;2023-04-01T08:32:18;0;0;
64138;PMS5003;50435;43.700;-79.318;2023-04-01T08:34:55;0;0;
64138;PMS5003;50435;43.700;-79.318;2023-04-01T08:37:34;1;1;
64138;PMS5003;50435;43.700;-79.318;2023-04-01T08:40:14;1;1;
64138;PMS5003;50435;43.700;-79.318;2023-04-01T08:43:04;0;0;
64138;PMS5003;50435;43.700;-79.318;2023-04-01T08:45:43;0;0;
64138;PMS5003;50435;43.700;-79.318;2023-04-01T08:48:24;0;0;
64138;PMS5003;50435;43.700;-79.318;2023-04-01T08:51:07;0;0;
64138;PMS5003;50435;43.700;-79.318;2023-04-01T08:53:54;0;0;
64138;PMS5003;50435;43.700;-79.318;2023-04-01T08:56:37;1;1;
64138;PMS5003;50435;43.700;-79.318;2023-04-01T08:59:13;0;0;
64138;PMS5003;50435;43.700;-79.318;2023-04-01T09:01:55;0;0;
64138;PMS5003;50435;43.700;-79.318;2023-04-01T09:04:43;0;0;
64138;PMS5003;50435;43.700;-79.318;2023-04-01T09:07:34;1;0;
64138;PMS5003;50435;43.700;-79.318;2023-04-01T09:10:21;0;0;
64138;PMS5003;50435;43.700;-79.318;2023-04-01T09:13:05;0;0;
64138;PMS5003;50435;43.700;-79.318;2023-04-01T09:16:22;0;0;
64138;PMS5003;50435;43.700;-79.318;2023-04-01T09:19:07;0;0;
64138;PMS5003;50435;43.700;-79.318;2023-04-01T09:21:51;0;0;
64138;PMS5003;50435;43.700;-79.318;2023-04-01T09:24:41;0;0;
64138;PMS5003;50435;43.700;-79.318;2023-04-01T09:27:23;1;1;
64138;PMS5003;50435;43.700;-79.318;2023-04-01T09:29:59;2;1;
64138;PMS5003;50435;43.700;-79.318;2023-04-01T09:32:52;0;0;
64138;PMS5003;50435;43.700;-79.318;2023-04-01T09:35:43;3;3;
64138;PMS5003;50435;43.700;-79.318;2023-04-01T09:38:20;0;0;
64138;PMS5003;50435;43.700;-79.318;2023-04-01T09:40:53;1;1;
64138;PMS5003;50435;43.700;-79.318;2023-04-01T09:43:26;2;2;
64138;PMS5003;50435;43.700;-79.318;2023-04-01T09:46:00;3;3;
64138;PMS5003;50435;43.700;-79.318;2023-04-01T09:48:41;3;3;
64138;PMS5003;50435;43.700;-79.318;2023-04-01T09:51:26;3;3;
64138;PMS5003;50435;43.700;-79.318;2023-04-01T09:54:07;2;2;
64138;PMS5003;50435;43.700;-79.318;2023-04-01T09:56:52;2;2;
64138;PMS5003;50435;43.700;-79.318;2023-04-01T10:01:06;5;4;
64138;PMS5003;50435;43.700;-79.318;2023-04-01T10:03:47;5;4;
64138;PMS5003;50435;43.700;-79.318;2023-04-01T10:07:27;5;5;
64138;PMS5003;50435;43.700;-79.318;2023-04-01T10:11:21;3;3;
64138;PMS5003;50435;43.700;-79.318;2023-04-01T10:14:13;5;5;
64138;PMS5003;50435;43.700;-79.318;2023-04-01T10:17:01;3;3;
64138;PMS5003;50435;43.700;-79.318;2023-04-01T10:20:22;6;6;
64138;PMS5003;50435;43.700;-79.318;2023-04-01T10:23:09;6;6;
64138;PMS5003;50435;43.700;-79.318;2023-04-01T10:25:53;5;5;
64138;PMS5003;50435;43.700;-79.318;2023-04-01T10:28:37;10;8;
64138;PMS5003;50435;43.700;-79.318;2023-04-01T10:31:30;9;9;
64138;PMS5003;50435;43.700;-79.318;2023-04-01T10:34:22;7;6;
64138;PMS5003;50435;43.700;-79.318;2023-04-01T10:37:09;12;11;
64138;PMS5003;50435;43.700;-79.318;2023-04-01T10:40:20;8;7;
64138;PMS5003;50435;43.700;-79.318;2023-04-01T10:43:15;9;8;
64138;PMS5003;50435;43.700;-79.318;2023-04-01T10:46:18;11;11;
64138;PMS5003;50435;43.700;-79.318;2023-04-01T10:49:10;11;10;
64138;PMS5003;50435;43.700;-79.318;2023-04-01T10:54:17;11;10;
64138;PMS5003;50435;43.700;-79.318;2023-04-01T10:56:59;13;13;
64138;PMS5003;50435;43.700;-79.318;2023-04-01T10:59:45;12;12;
64138;PMS5003;50435;43.700;-79.318;2023-04-01T11:02:45;10;10;
64138;PMS5003;50435;43.700;-79.318;2023-04-01T11:05:48;11;11;
64138;PMS5003;50435;43.700;-79.318;2023-04-01T11:08:47;18;14;
64138;PMS5003;50435;43.700;-79.318;2023-04-01T11:11:47;18;17;
64138;PMS5003;50435;43.700;-79.318;2023-04-01T11:14:36;14;13;
64138;PMS5003;50435;43.700;-79.318;2023-04-01T11:18:31;12;11;
64138;PMS5003;50435;43.700;-79.318;2023-04-01T11:21:46;13;13;
64138;PMS5003;50435;43.700;-79.318;2023-04-01T11:24:30;16;14;
64138;PMS5003;50435;43.700;-79.318;2023-04-01T11:27:48;16;14;
64138;PMS5003;50435;43.700;-79.318;2023-04-01T11:30:39;20;16;
64138;PMS5003;50435;43.700;-79.318;2023-04-01T11:33:20;21;19;
64138;PMS5003;50435;43.700;-79.318;2023-04-01T11:35:56;26;23;
64138;PMS5003;50435;43.700;-79.318;2023-04-01T11:38:38;15;14;
64138;PMS5003;50435;43.700;-79.318;2023-04-01T11:41:26;21;18;
64138;PMS5003;50435;43.700;-79.318;2023-04-01T11:44:12;24;21;
64138;PMS5003;50435;43.700;-79.318;2023-04-01T11:46:49;15;15;
64138;PMS5003;50435;43.700;-79.318;2023-04-01T11:49:37;21;19;
64138;PMS5003;50435;43.700;-79.318;2023-04-01T11:52:21;19;17;
64138;PMS5003;50435;43.700;-79.318;2023-04-01T11:55:04;18;16;
64138;PMS5003;50435;43.700;-79.318;2023-04-01T11:57:43;18;17;
64138;PMS5003;50435;43.700;-79.318;2023-04-01T12:00:26;16;14;
64138;PMS5003;50435;43.700;-79.318;2023-04-01T12:03:13;24;19;
64138;PMS5003;50435;43.700;-79.318;2023-04-01T12:05:58;16;16;
64138;PMS5003;50435;43.700;-79.318;2023-04-01T12:08:35;15;15;
64138;PMS5003;50435;43.700;-79.318;2023-04-01T12:11:14;13;13;
64138;PMS5003;50435;43.700;-79.318;2023-04-01T12:13:49;17;14;
64138;PMS5003;50435;43.700;-79.318;2023-04-01T12:16:28;15;14;
64138;PMS5003;50435;43.700;-79.318;2023-04-01T12:19:07;19;15;
64138;PMS5003;50435;43.700;-79.318;2023-04-01T12:21:43;10;10;
64138;PMS5003;50435;43.700;-79.318;2023-04-01T12:24:25;16;15;
64138;PMS5003;50435;43.700;-79.318;2023-04-01T12:27:10;12;11;
64138;PMS5003;50435;43.700;-79.318;2023-04-01T12:32:12;13;12;
64138;PMS5003;50435;43.700;-79.318;2023-04-01T12:34:55;13;13;
64138;PMS5003;50435;43.700;-79.318;2023-04-01T12:37:35;10;10;
64138;PMS5003;50435;43.700;-79.318;2023-04-01T12:40:38;10;10;
64138;PMS5003;50435;43.700;-79.318;2023-04-01T12:43:22;11;10;
64138;PMS5003;50435;43.700;-79.318;2023-04-01T12:46:19;12;12;
64138;PMS5003;50435;43.700;-79.318;2023-04-01T12:49:00;11;11;
64138;PMS5003;50435;43.700;-79.318;2023-04-01T12:52:00;7;7;
64138;PMS5003;50435;43.700;-79.318;2023-04-01T12:55:16;12;11;
64138;PMS5003;50435;43.700;-79.318;2023-04-01T12:58:05;12;9;
64138;PMS5003;50435;43.700;-79.318;2023-04-01T13:00:48;10;9;
64138;PMS5003;50435;43.700;-79.318;2023-04-01T13:03:52;11;10;
64138;PMS5003;50435;43.700;-79.318;2023-04-01T13:06:38;8;8;
64138;PMS5003;50435;43.700;-79.318;2023-04-01T13:09:18;9;8;
64138;PMS5003;50435;43.700;-79.318;2023-04-01T13:12:00;8;7;
64138;PMS5003;50435;43.700;-79.318;2023-04-01T13:14:50;9;7;
64138;PMS5003;50435;43.700;-79.318;2023-04-01T13:17:33;10;9;
64138;PMS5003;50435;43.700;-79.318;2023-04-01T13:20:13;10;8;
64138;PMS5003;50435;43.700;-79.318;2023-04-01T13:22:49;9;6;
64138;PMS5003;50435;43.700;-79.318;2023-04-01T13:25:27;7;7;
64138;PMS5003;50435;43.700;-79.318;2023-04-01T13:28:05;6;6;
64138;PMS5003;50435;43.700;-79.318;2023-04-01T13:30:43;7;7;
64138;PMS5003;50435;43.700;-79.318;2023-04-01T13:33:20;10;7;
64138;PMS5003;50435;43.700;-79.318;2023-04-01T13:35:55;9;8;
64138;PMS5003;50435;43.700;-79.318;2023-04-01T13:38:45;6;6;
64138;PMS5003;50435;43.700;-79.318;2023-04-01T13:41:26;8;6;
64138;PMS5003;50435;43.700;-79.318;2023-04-01T13:44:08;5;5;
64138;PMS5003;50435;43.700;-79.318;2023-04-01T13:46:43;5;5;
64138;PMS5003;50435;43.700;-79.318;2023-04-01T13:49:37;7;7;
64138;PMS5003;50435;43.700;-79.318;2023-04-01T13:52:17;6;6;
64138;PMS5003;50435;43.700;-79.318;2023-04-01T13:55:01;5;5;
64138;PMS5003;50435;43.700;-79.318;2023-04-01T13:57:54;6;5;
64138;PMS5003;50435;43.700;-79.318;2023-04-01T14:00:39;6;6;
64138;PMS5003;50435;43.700;-79.318;2023-04-01T14:03:20;7;6;
64138;PMS5003;50435;43.700;-79.318;2023-04-01T14:06:06;7;6;
64138;PMS5003;50435;43.700;-79.318;2023-04-01T14:08:47;2;2;
64138;PMS5003;50435;43.700;-79.318;2023-04-01T14:11:30;5;5;
64138;PMS5003;50435;43.700;-79.318;2023-04-01T14:14:08;3;3;
64138;PMS5003;50435;43.700;-79.318;2023-04-01T14:16:55;3;3;
64138;PMS5003;50435;43.700;-79.318;2023-04-01T14:19:34;7;7;
64138;PMS5003;50435;43.700;-79.318;2023-04-01T14:22:20;3;3;
64138;PMS5003;50435;43.700;-79.318;2023-04-01T14:25:04;4;4;
64138;PMS5003;50435;43.700;-79.318;2023-04-01T14:27:51;5;5;
64138;PMS5003;50435;43.700;-79.318;2023-04-01T14:30:34;6;5;
64138;PMS5003;50435;43.700;-79.318;2023-04-01T14:33:13;4;3;
64138;PMS5003;50435;43.700;-79.318;2023-04-01T14:35:51;6;6;
64138;PMS5003;50435;43.700;-79.318;2023-04-01T14:38:35;6;6;
64138;PMS5003;50435;43.700;-79.318;2023-04-01T14:41:19;4;4;
64138;PMS5003;50435;43.700;-79.318;2023-04-01T14:44:04;3;3;
64138;PMS5003;50435;43.700;-79.318;2023-04-01T14:46:53;7;7;
64138;PMS5003;50435;43.700;-79.318;2023-04-01T14:49:40;4;3;
64138;PMS5003;50435;43.700;-79.318;2023-04-01T14:52:10;5;5;
64138;PMS5003;50435;43.700;-79.318;2023-04-01T14:54:42;4;4;
64138;PMS5003;50435;43.700;-79.318;2023-04-01T14:57:13;7;6;
64138;PMS5003;50435;43.700;-79.318;2023-04-01T14:59:46;2;2;
64138;PMS5003;50435;43.700;-79.318;2023-04-01T15:02:23;2;2;
64138;PMS5003;50435;43.700;-79.318;2023-04-01T15:05:08;2;2;
64138;PMS5003;50435;43.700;-79.318;2023-04-01T15:07:49;2;2;
64138;PMS5003;50435;43.700;-79.318;2023-04-01T15:10:35;3;3;
64138;PMS5003;50435;43.700;-79.318;2023-04-01T15:13:23;2;2;
64138;PMS5003;50435;43.700;-79.318;2023-04-01T15:16:05;2;2;
64138;PMS5003;50435;43.700;-79.318;2023-04-01T15:18:41;2;2;
64138;PMS5003;50435;43.700;-79.318;2023-04-01T15:21:25;1;1;
64138;PMS5003;50435;43.700;-79.318;2023-04-01T15:24:06;1;1;
64138;PMS5003;50435;43.700;-79.318;2023-04-01T15:26:53;2;2;
64138;PMS5003;50435;43.700;-79.318;2023-04-01T15:29:50;2;1;
64138;PMS5003;50435;43.700;-79.318;2023-04-01T15:34:07;3;3;
64138;PMS5003;50435;43.700;-79.318;2023-04-01T15:36:46;2;2;
64138;PMS5003;50435;43.700;-79.318;2023-04-01T15:39:24;1;1;
64138;PMS5003;50435;43.700;-79.318;2023-04-01T15:42:05;2;2;
64138;PMS5003;50435;43.700;-79.318;2023-04-01T15:44:48;3;3;
64138;PMS5003;50435;43.700;-79.318;2023-04-01T15:47:31;2;2;
64138;PMS5003;50435;43.700;-79.318;2023-04-01T15:50:07;2;2;
64138;PMS5003;50435;43.700;-79.318;2023-04-01T15:53:05;4;4;
64138;PMS5003;50435;43.700;-79.318;2023-04-01T15:55:44;3;3;
64138;PMS5003;50435;43.700;-79.318;2023-04-01T15:58:20;5;5;
64138;PMS5003;50435;43.700;-79.318;2023-04-01T16:01:03;3;3;
64138;PMS5003;50435;43.700;-79.318;2023-04-01T16:03:42;3;3;
64138;PMS5003;50435;43.700;-79.318;2023-04-01T16:06:23;2;2;
64138;PMS5003;50435;43.700;-79.318;2023-04-01T16:09:07;3;3;
64138;PMS5003;50435;43.700;-79.318;2023-04-01T16:11:46;2;2;
64138;PMS5003;50435;43.700;-79.318;2023-04-01T16:14:24;2;2;
64138;PMS5003;50435;43.700;-79.318;2023-04-01T16:17:05;3;3;
64138;PMS5003;50435;43.700;-79.318;2023-04-01T16:19:49;2;2;
64138;PMS5003;50435;43.700;-79.318;2023-04-01T16:22:21;7;6;
64138;PMS5003;50435;43.700;-79.318;2023-04-01T16:24:54;4;4;
64138;PMS5003;50435;43.700;-79.318;2023-04-01T16:27:29;3;3;
64138;PMS5003;50435;43.700;-79.318;2023-04-01T16:30:10;3;3;
64138;PMS5003;50435;43.700;-79.318;2023-04-01T16:32:54;4;4;
64138;PMS5003;50435;43.700;-79.318;2023-04-01T16:35:30;2;2;
64138;PMS5003;50435;43.700;-79.318;2023-04-01T16:38:08;8;8;
64138;PMS5003;50435;43.700;-79.318;2023-04-01T16:40:43;7;7;
64138;PMS5003;50435;43.700;-79.318;2023-04-01T16:43:20;11;11;
64138;PMS5003;50435;43.700;-79.318;2023-04-01T16:45:54;33;32;
64138;PMS5003;50435;43.700;-79.318;2023-04-01T16:48:45;21;21;
64138;PMS5003;50435;43.700;-79.318;2023-04-01T16:51:24;10;10;
64138;PMS5003;50435;43.700;-79.318;2023-04-01T16:54:02;8;7;
64138;PMS5003;50435;43.700;-79.318;2023-04-01T16:56:39;5;5;
64138;PMS5003;50435;43.700;-79.318;2023-04-01T16:59:14;3;2;
64138;PMS5003;50435;43.700;-79.318;2023-04-01T17:01:50;2;2;
64138;PMS5003;50435;43.700;-79.318;2023-04-01T17:04:23;5;4;
64138;PMS5003;50435;43.700;-79.318;2023-04-01T17:06:58;3;3;
64138;PMS5003;50435;43.700;-79.318;2023-04-01T17:09:43;3;1;
64138;PMS5003;50435;43.700;-79.318;2023-04-01T17:12:20;4;2;
64138;PMS5003;50435;43.700;-79.318;2023-04-01T17:14:56;1;1;
64138;PMS5003;50435;43.700;-79.318;2023-04-01T17:17:33;2;2;
64138;PMS5003;50435;43.700;-79.318;2023-04-01T17:20:40;3;3;
64138;PMS5003;50435;43.700;-79.318;2023-04-01T17:23:19;2;2;
64138;PMS5003;50435;43.700;-79.318;2023-04-01T17:25:53;2;2;
64138;PMS5003;50435;43.700;-79.318;2023-04-01T17:28:32;5;3;